createdAt,value
2019-06-08T00:02:08.743Z,17.63
2019-06-08T00:04:39.048Z,20.93
2019-06-08T00:07:09.140Z,18.27
2019-06-08T00:09:39.238Z,18.23
2019-06-08T00:12:09.405Z,20.27
2019-06-08T00:14:39.497Z,20.00
2019-06-08T00:17:09.602Z,19.97
2019-06-08T00:19:39.652Z,16.00
2019-06-08T00:22:09.741Z,19.07
2019-06-08T00:24:39.896Z,31.00
2019-06-08T00:27:30.713Z,20.13
2019-06-08T00:30:00.832Z,18.90
2019-06-08T00:32:53.174Z,25.93
2019-06-08T00:35:23.227Z,16.50
2019-06-08T00:38:15.045Z,15.33
2019-06-08T00:40:46.047Z,21.87
2019-06-08T00:43:39.750Z,20.43
2019-06-08T00:46:09.836Z,17.80
2019-06-08T00:49:08.112Z,18.00
2019-06-08T00:51:38.230Z,16.37
2019-06-08T00:54:31.850Z,18.27
2019-06-08T00:57:01.943Z,24.23
2019-06-08T00:59:48.177Z,28.93
2019-06-08T01:02:22.456Z,21.73
2019-06-08T01:05:16.161Z,21.53
2019-06-08T01:07:46.245Z,21.97
2019-06-08T01:10:41.001Z,20.20
2019-06-08T01:13:11.128Z,36.03
2019-06-08T01:16:03.112Z,19.57
2019-06-08T01:18:33.173Z,22.77
2019-06-08T01:21:23.441Z,29.53
2019-06-08T01:23:53.514Z,21.97
2019-06-08T01:26:28.116Z,18.67
2019-06-08T01:28:55.297Z,33.03
2019-06-08T01:31:26.597Z,23.63
2019-06-08T01:33:56.987Z,21.67
2019-06-08T01:36:27.529Z,21.40
2019-06-08T01:38:58.009Z,21.80
2019-06-08T01:41:28.091Z,25.93
2019-06-08T01:43:58.702Z,47.57
2019-06-08T01:46:30.182Z,43.67
2019-06-08T01:49:00.365Z,20.23
2019-06-08T01:51:30.570Z,39.03
2019-06-08T01:54:00.813Z,25.20
2019-06-08T01:56:31.247Z,31.53
2019-06-08T01:59:17.869Z,25.03
2019-06-08T02:01:47.953Z,20.03
2019-06-08T02:04:38.393Z,24.37
2019-06-08T02:07:08.481Z,22.20
2019-06-08T02:10:04.831Z,38.50
2019-06-08T02:12:35.301Z,21.03
2019-06-08T02:15:29.115Z,20.40
2019-06-08T02:17:59.292Z,35.13
2019-06-08T02:20:49.794Z,27.47
2019-06-08T02:23:19.976Z,26.10
2019-06-08T02:25:59.136Z,28.07
2019-06-08T02:28:29.455Z,20.97
2019-06-08T02:30:59.746Z,19.80
2019-06-08T02:33:30.339Z,19.67
2019-06-08T02:36:00.470Z,22.10
2019-06-08T02:38:32.101Z,22.30
2019-06-08T02:41:02.594Z,20.20
2019-06-08T02:43:33.327Z,20.97
2019-06-08T02:46:03.575Z,20.17
2019-06-08T02:48:35.242Z,19.30
2019-06-08T02:51:07.230Z,20.63
2019-06-08T02:53:38.375Z,21.60
2019-06-08T02:56:10.298Z,21.40
2019-06-08T02:58:42.722Z,18.97
2019-06-08T03:01:14.423Z,17.53
2019-06-08T03:04:01.894Z,20.43
2019-06-08T03:06:32.419Z,17.17
2019-06-08T03:09:30.340Z,19.43
2019-06-08T03:12:02.961Z,17.13
2019-06-08T03:14:53.379Z,24.47
2019-06-08T03:17:23.476Z,15.53
2019-06-08T03:20:17.561Z,15.97
2019-06-08T03:22:47.646Z,17.20
2019-06-08T03:25:47.271Z,16.07
2019-06-08T03:28:09.531Z,16.43
2019-06-08T03:31:05.833Z,18.97
2019-06-08T03:33:45.301Z,17.73
2019-06-08T03:36:25.830Z,17.13
2019-06-08T03:38:55.950Z,16.20
2019-06-08T03:41:51.833Z,16.93
2019-06-08T03:44:21.914Z,14.40
2019-06-08T03:47:13.804Z,16.00
2019-06-08T03:49:54.526Z,16.63
2019-06-08T03:52:37.796Z,17.20
2019-06-08T03:55:08.357Z,15.77
2019-06-08T03:58:00.532Z,16.73
2019-06-08T04:00:30.651Z,17.47
2019-06-08T04:03:00.745Z,18.07
2019-06-08T04:05:30.830Z,18.27
2019-06-08T04:08:01.008Z,18.77
2019-06-08T04:13:14.777Z,21.10
2019-06-08T04:15:46.659Z,24.37
2019-06-08T04:18:16.590Z,18.87
2019-06-08T04:20:48.817Z,22.13
2019-06-08T04:23:25.893Z,20.23
2019-06-08T04:25:56.042Z,20.60
2019-06-08T04:28:44.770Z,18.93
2019-06-08T04:31:15.446Z,21.03
2019-06-08T04:33:50.720Z,19.60
2019-06-08T04:36:20.454Z,20.20
2019-06-08T04:38:50.534Z,19.23
2019-06-08T04:41:20.629Z,20.70
2019-06-08T04:43:50.729Z,18.37
2019-06-08T04:46:20.833Z,18.90
2019-06-08T04:48:50.893Z,19.20
2019-06-08T04:51:21.042Z,20.47
2019-06-08T04:53:51.169Z,18.10
2019-06-08T04:56:21.254Z,19.53
2019-06-08T04:58:51.579Z,19.43
2019-06-08T05:01:21.726Z,18.73
2019-06-08T05:03:51.808Z,19.03
2019-06-08T05:06:34.405Z,19.30
2019-06-08T05:09:05.660Z,18.70
2019-06-08T05:11:56.513Z,19.07
2019-06-08T05:14:26.585Z,17.83
2019-06-08T05:17:14.823Z,18.17
2019-06-08T05:19:43.537Z,18.30
2019-06-08T05:22:13.645Z,18.00
2019-06-08T05:24:43.760Z,18.00
2019-06-08T05:27:13.853Z,19.63
2019-06-08T05:29:45.314Z,18.53
2019-06-08T05:32:15.785Z,17.57
2019-06-08T05:34:45.876Z,17.20
2019-06-08T05:37:16.044Z,17.63
2019-06-08T05:39:46.101Z,17.77
2019-06-08T05:42:16.191Z,17.80
2019-06-08T05:44:47.544Z,18.47
2019-06-08T05:47:17.966Z,18.03
2019-06-08T05:49:48.067Z,19.33
2019-06-08T05:52:18.129Z,18.87
2019-06-08T05:55:09.461Z,17.20
2019-06-08T05:57:40.034Z,17.13
2019-06-08T06:00:10.640Z,16.33
2019-06-08T06:02:42.141Z,16.10
2019-06-08T06:05:12.539Z,16.13
2019-06-08T06:07:42.688Z,16.00
2019-06-08T06:10:13.096Z,16.97
2019-06-08T06:12:43.221Z,14.67
2019-06-08T06:15:13.972Z,15.67
2019-06-08T06:17:46.639Z,16.40
2019-06-08T06:20:15.874Z,15.53
2019-06-08T06:22:58.705Z,15.87
2019-06-08T06:25:29.078Z,15.53
2019-06-08T06:28:19.453Z,14.73
2019-06-08T06:30:50.223Z,15.33
2019-06-08T06:33:23.912Z,14.97
2019-06-08T06:35:53.982Z,15.87
2019-06-08T06:38:24.106Z,14.87
2019-06-08T06:40:54.157Z,14.53
2019-06-08T06:43:24.258Z,15.30
2019-06-08T06:45:54.344Z,15.40
2019-06-08T06:48:24.527Z,15.17
2019-06-08T06:50:54.638Z,15.03
2019-06-08T06:53:24.756Z,14.67
2019-06-08T06:55:54.845Z,14.07
2019-06-08T06:58:24.917Z,14.67
2019-06-08T07:00:55.145Z,14.10
2019-06-08T07:03:25.271Z,15.00
2019-06-08T07:05:55.410Z,14.40
2019-06-08T07:08:25.504Z,14.70
2019-06-08T07:10:55.676Z,13.77
2019-06-08T07:13:25.735Z,14.70
2019-06-08T07:15:58.112Z,13.07
2019-06-08T07:18:27.580Z,13.67
2019-06-08T07:20:58.587Z,13.77
2019-06-08T07:23:29.093Z,13.63
2019-06-08T07:25:59.210Z,13.10
2019-06-08T07:28:29.300Z,13.30
2019-06-08T07:30:59.428Z,12.77
2019-06-08T07:33:29.528Z,12.90
2019-06-08T07:35:59.926Z,12.27
2019-06-08T07:38:30.045Z,12.33
2019-06-08T07:41:01.776Z,12.10
2019-06-08T07:43:32.066Z,12.90
2019-06-08T07:46:02.162Z,11.97
2019-06-08T07:48:32.252Z,11.80
2019-06-08T07:51:02.310Z,12.83
2019-06-08T07:53:32.388Z,11.60
2019-06-08T07:56:02.520Z,11.60
2019-06-08T07:58:32.649Z,11.33
2019-06-08T08:01:07.920Z,11.70
2019-06-08T08:03:34.552Z,11.37
2019-06-08T08:06:04.653Z,11.20
2019-06-08T08:08:34.781Z,11.37
2019-06-08T08:11:04.885Z,11.33
2019-06-08T08:13:35.472Z,11.80
2019-06-08T08:16:05.738Z,11.37
2019-06-08T08:18:35.781Z,10.37
2019-06-08T08:21:18.836Z,11.30
2019-06-08T08:23:38.217Z,11.40
2019-06-08T08:26:08.431Z,11.20
2019-06-08T08:28:38.497Z,10.97
2019-06-08T08:31:11.352Z,11.17
2019-06-08T08:34:09.905Z,10.47
2019-06-08T08:36:39.990Z,10.70
2019-06-08T08:39:34.659Z,10.90
2019-06-08T08:42:05.442Z,9.87
2019-06-08T08:45:05.069Z,10.73
2019-06-08T08:47:31.015Z,10.30
2019-06-08T08:50:23.304Z,8.47
2019-06-08T08:52:54.160Z,8.83
2019-06-08T08:55:50.898Z,9.13
2019-06-08T08:58:21.040Z,9.43
2019-06-08T09:01:12.729Z,9.47
2019-06-08T09:03:42.791Z,8.83
2019-06-08T09:06:33.964Z,8.90
2019-06-08T09:09:08.640Z,7.67
2019-06-08T09:12:03.056Z,8.00
2019-06-08T09:14:31.848Z,7.90
2019-06-08T09:17:24.489Z,8.37
2019-06-08T09:19:55.943Z,8.60
2019-06-08T09:22:58.861Z,8.30
2019-06-08T09:25:23.663Z,8.37
2019-06-08T09:28:14.210Z,8.00
2019-06-08T09:30:44.311Z,7.80
2019-06-08T09:33:35.554Z,8.43
2019-06-08T09:36:07.688Z,7.73
2019-06-08T09:39:03.101Z,8.13
2019-06-08T09:41:22.986Z,8.83
2019-06-08T09:43:54.069Z,8.73
2019-06-08T09:46:27.409Z,8.30
2019-06-08T09:49:00.474Z,8.13
2019-06-08T09:51:28.620Z,8.40
2019-06-08T09:54:02.652Z,8.20
2019-06-08T09:56:30.778Z,8.00
2019-06-08T09:59:04.033Z,8.17
2019-06-08T10:01:32.662Z,7.80
2019-06-08T10:04:04.082Z,8.67
2019-06-08T10:06:34.453Z,8.10
2019-06-08T10:09:08.844Z,8.63
2019-06-08T10:11:38.335Z,8.13
2019-06-08T10:14:11.330Z,8.17
2019-06-08T10:17:00.702Z,8.20
2019-06-08T10:19:29.229Z,8.30
2019-06-08T10:22:14.001Z,7.83
2019-06-08T10:24:41.485Z,8.27
2019-06-08T10:27:11.633Z,7.43
2019-06-08T10:29:42.381Z,7.70
2019-06-08T10:32:14.122Z,8.00
2019-06-08T10:34:44.204Z,7.60
2019-06-08T10:37:14.291Z,7.60
2019-06-08T10:39:44.329Z,7.73
2019-06-08T10:42:14.440Z,7.27
2019-06-08T10:44:44.528Z,7.83
2019-06-08T10:47:14.620Z,7.27
2019-06-08T10:49:44.660Z,7.67
2019-06-08T10:52:14.805Z,7.10
2019-06-08T10:55:09.941Z,6.87
2019-06-08T10:57:38.141Z,7.20
2019-06-08T11:00:30.962Z,7.33
2019-06-08T11:03:03.300Z,7.77
2019-06-08T11:05:55.597Z,7.20
2019-06-08T11:08:27.574Z,7.30
2019-06-08T11:11:19.602Z,7.23
2019-06-08T11:13:50.065Z,7.47
2019-06-08T11:16:40.825Z,7.27
2019-06-08T11:19:12.887Z,6.87
2019-06-08T11:22:07.397Z,6.53
2019-06-08T11:24:35.270Z,6.40
2019-06-08T11:27:28.748Z,6.30
2019-06-08T11:29:59.571Z,6.93
2019-06-08T11:32:57.809Z,7.10
2019-06-08T11:35:28.582Z,7.20
2019-06-08T11:38:00.112Z,7.70
2019-06-08T11:40:30.304Z,7.33
2019-06-08T11:43:00.762Z,6.90
2019-06-08T11:45:32.113Z,7.17
2019-06-08T11:48:02.734Z,7.17
2019-06-08T11:50:42.166Z,7.10
2019-06-08T11:53:14.339Z,6.67
2019-06-08T11:55:44.554Z,7.47
2019-06-08T11:58:19.346Z,7.40
2019-06-08T12:01:11.149Z,7.87
2019-06-08T12:03:38.872Z,7.33
2019-06-08T12:06:29.305Z,7.03
2019-06-08T12:09:00.318Z,7.43
2019-06-08T12:11:53.234Z,7.17
2019-06-08T12:14:23.320Z,7.80
2019-06-08T12:17:01.265Z,7.70
2019-06-08T12:19:31.548Z,7.37
2019-06-08T12:22:01.838Z,7.27
2019-06-08T12:24:41.478Z,7.40
2019-06-08T12:27:14.967Z,7.73
2019-06-08T12:29:35.316Z,7.33
2019-06-08T12:32:08.879Z,8.03
2019-06-08T12:34:38.349Z,8.13
2019-06-08T12:37:13.367Z,8.30
2019-06-08T12:39:40.412Z,8.33
2019-06-08T12:42:18.103Z,8.37
2019-06-08T12:44:43.714Z,8.17
2019-06-08T12:47:17.639Z,7.93
2019-06-08T12:50:01.799Z,8.47
2019-06-08T12:52:51.062Z,8.30
2019-06-08T12:55:29.150Z,7.80
2019-06-08T12:57:59.264Z,8.33
2019-06-08T13:00:58.049Z,8.17
2019-06-08T13:03:29.899Z,7.87
2019-06-08T13:06:14.042Z,8.70
2019-06-08T13:08:44.689Z,7.70
2019-06-08T13:11:36.024Z,8.80
2019-06-08T13:14:01.402Z,8.40
2019-06-08T13:16:31.505Z,7.45
2019-06-08T13:19:01.637Z,7.60
2019-06-08T13:21:35.270Z,7.90
2019-06-08T13:24:03.404Z,8.13
2019-06-08T13:26:33.492Z,7.30
2019-06-08T13:29:03.617Z,7.80
2019-06-08T13:31:33.751Z,8.18
2019-06-08T13:34:03.817Z,7.17
2019-06-08T13:36:34.048Z,6.87
2019-06-08T13:39:09.869Z,7.57
2019-06-08T13:41:38.359Z,7.50
2019-06-08T13:44:11.515Z,6.50
2019-06-08T13:46:41.688Z,7.83
2019-06-08T13:49:12.145Z,6.97
2019-06-08T13:51:42.540Z,7.93
2019-06-08T13:54:12.820Z,7.47
2019-06-08T13:56:43.225Z,7.00
2019-06-08T13:59:13.657Z,6.93
2019-06-08T14:01:45.005Z,6.30
2019-06-08T14:04:15.210Z,6.53
2019-06-08T14:06:45.931Z,6.42
2019-06-08T14:09:16.938Z,7.37
2019-06-08T14:12:03.072Z,7.47
2019-06-08T14:14:33.853Z,7.47
2019-06-08T14:17:30.790Z,7.25
2019-06-08T14:20:00.973Z,7.28
2019-06-08T14:22:52.164Z,7.70
2019-06-08T14:25:23.298Z,7.67
2019-06-08T14:28:19.839Z,8.25
2019-06-08T14:30:49.656Z,7.90
2019-06-08T14:33:39.808Z,8.28
2019-06-08T14:36:09.896Z,8.40
2019-06-08T14:38:42.079Z,8.20
2019-06-08T14:41:11.752Z,8.05
2019-06-08T14:43:41.828Z,8.68
2019-06-08T14:46:11.922Z,8.08
2019-06-08T14:48:45.112Z,7.80
2019-06-08T14:51:13.745Z,8.23
2019-06-08T14:53:43.841Z,8.43
2019-06-08T14:56:13.920Z,8.15
2019-06-08T14:58:44.072Z,8.43
2019-06-08T15:01:14.133Z,8.58
2019-06-08T15:03:44.216Z,8.63
2019-06-08T15:06:14.290Z,8.70
2019-06-08T15:08:44.387Z,8.55
2019-06-08T15:11:40.849Z,8.48
2019-06-08T15:14:10.972Z,8.28
2019-06-08T15:17:00.108Z,8.23
2019-06-08T15:19:32.380Z,8.35
2019-06-08T15:22:02.920Z,8.20
2019-06-08T15:24:33.143Z,7.78
2019-06-08T15:27:03.214Z,8.40
2019-06-08T15:29:33.366Z,8.15
2019-06-08T15:32:03.490Z,8.18
2019-06-08T15:34:33.640Z,8.83
2019-06-08T15:37:03.705Z,8.68
2019-06-08T15:39:34.242Z,8.18
2019-06-08T15:42:04.577Z,8.18
2019-06-08T15:44:34.697Z,8.18
2019-06-08T15:47:04.866Z,8.15
2019-06-08T15:49:34.928Z,7.60
2019-06-08T15:52:08.246Z,8.10
2019-06-08T15:54:58.277Z,8.33
2019-06-08T15:57:29.598Z,8.83
2019-06-08T16:00:18.473Z,8.55
2019-06-08T16:02:48.759Z,8.35
2019-06-08T16:05:40.690Z,8.13
2019-06-08T16:08:10.810Z,8.10
2019-06-08T16:13:32.944Z,7.65
2019-06-08T16:16:03.160Z,8.73
2019-06-08T16:18:33.611Z,8.05
2019-06-08T16:21:04.123Z,8.70
2019-06-08T16:23:34.282Z,9.43
2019-06-08T16:26:04.513Z,8.47
2019-06-08T16:28:34.628Z,8.57
2019-06-08T16:31:05.561Z,9.30
2019-06-08T16:33:35.932Z,8.57
2019-06-08T16:36:06.006Z,9.07
2019-06-08T16:38:36.392Z,9.40
2019-06-08T16:41:06.640Z,8.47
2019-06-08T16:43:36.735Z,10.00
2019-06-08T16:46:06.903Z,9.53
2019-06-08T16:49:03.285Z,9.40
2019-06-08T16:51:34.084Z,9.33
2019-06-08T16:54:22.970Z,8.80
2019-06-08T16:57:06.362Z,9.70
2019-06-08T16:59:25.507Z,10.47
2019-06-08T17:01:56.080Z,10.07
2019-06-08T17:04:26.288Z,9.67
2019-06-08T17:06:56.433Z,10.70
2019-06-08T17:09:26.546Z,10.13
2019-06-08T17:11:56.801Z,10.47
2019-06-08T17:14:26.902Z,10.07
2019-06-08T17:16:56.985Z,9.67
2019-06-08T17:19:27.089Z,10.63
2019-06-08T17:21:57.184Z,10.97
2019-06-08T17:24:27.282Z,10.97
2019-06-08T17:27:26.802Z,10.97
2019-06-08T17:29:52.675Z,10.07
2019-06-08T17:32:38.786Z,9.87
2019-06-08T17:35:10.208Z,10.30
2019-06-08T17:37:40.318Z,8.93
2019-06-08T17:40:10.433Z,9.10
2019-06-08T17:42:41.589Z,9.60
2019-06-08T17:45:12.307Z,8.83
2019-06-08T17:47:42.849Z,9.87
2019-06-08T17:50:13.218Z,9.63
2019-06-08T17:52:43.437Z,10.03
2019-06-08T17:55:13.524Z,10.77
2019-06-08T17:57:52.837Z,10.87
2019-06-08T18:00:16.034Z,12.10
2019-06-08T18:02:48.216Z,13.63
2019-06-08T18:05:18.340Z,13.30
2019-06-08T18:07:49.098Z,14.40
2019-06-08T18:10:41.814Z,15.50
2019-06-08T18:13:12.162Z,14.83
2019-06-08T18:15:43.726Z,18.33
2019-06-08T18:18:14.380Z,17.03
2019-06-08T18:20:45.013Z,17.30
2019-06-08T18:23:17.198Z,18.07
2019-06-08T18:25:48.062Z,17.63
2019-06-08T18:28:18.516Z,16.07
2019-06-08T18:30:49.298Z,16.57
2019-06-08T18:33:20.100Z,18.43
2019-06-08T18:35:50.286Z,17.03
2019-06-08T18:38:20.625Z,17.20
2019-06-08T18:40:50.732Z,16.37
2019-06-08T18:43:22.285Z,18.17
2019-06-08T18:45:52.418Z,18.00
2019-06-08T18:48:44.798Z,18.07
2019-06-08T18:51:17.362Z,16.00
2019-06-08T18:54:11.298Z,17.53
2019-06-08T18:56:38.713Z,18.63
2019-06-08T18:59:28.817Z,16.37
2019-06-08T19:01:59.078Z,17.00
2019-06-08T19:04:51.841Z,17.17
2019-06-08T19:07:21.941Z,17.57
2019-06-08T19:09:52.260Z,15.67
2019-06-08T19:12:22.401Z,12.97
2019-06-08T19:14:52.596Z,14.10
2019-06-08T19:17:22.853Z,16.33
2019-06-08T19:19:52.952Z,16.33
2019-06-08T19:22:23.050Z,15.53
2019-06-08T19:24:53.115Z,14.37
2019-06-08T19:27:23.353Z,12.83
2019-06-08T19:29:53.481Z,12.20
2019-06-08T19:32:23.572Z,14.60
2019-06-08T19:34:54.827Z,14.77
2019-06-08T19:37:25.136Z,13.17
2019-06-08T19:39:57.561Z,14.47
2019-06-08T19:42:55.392Z,13.80
2019-06-08T19:45:21.019Z,13.90
2019-06-08T19:48:10.226Z,15.43
2019-06-08T19:50:41.359Z,17.50
2019-06-08T19:53:33.782Z,19.73
2019-06-08T19:56:03.953Z,17.77
2019-06-08T19:59:01.780Z,19.63
2019-06-08T20:01:27.682Z,18.77
2019-06-08T20:04:18.151Z,19.23
2019-06-08T20:06:47.990Z,18.63
2019-06-08T20:09:18.427Z,14.93
2019-06-08T20:11:54.158Z,15.00
2019-06-08T20:14:20.304Z,15.30
2019-06-08T20:16:50.917Z,14.20
2019-06-08T20:19:21.122Z,18.57
2019-06-08T20:21:51.604Z,16.50
2019-06-08T20:24:21.856Z,14.20
2019-06-08T20:26:53.405Z,13.73
2019-06-08T20:29:23.689Z,12.77
2019-06-08T20:31:53.887Z,11.30
2019-06-08T20:34:23.952Z,14.00
2019-06-08T20:36:54.357Z,13.70
2019-06-08T20:39:24.405Z,12.23
2019-06-08T20:42:13.858Z,12.00
2019-06-08T20:44:44.025Z,12.40
2019-06-08T20:47:39.088Z,13.97
2019-06-08T20:50:09.807Z,14.20
2019-06-08T20:52:57.907Z,14.80
2019-06-08T20:55:28.398Z,17.03
2019-06-08T20:58:21.576Z,18.40
2019-06-08T21:00:52.710Z,21.93
2019-06-08T21:03:52.779Z,19.47
2019-06-08T21:06:22.909Z,21.47
2019-06-08T21:09:07.796Z,20.40
2019-06-08T21:11:38.122Z,20.20
2019-06-08T21:14:17.419Z,23.47
2019-06-08T21:16:49.272Z,27.90
2019-06-08T21:19:19.504Z,23.93
2019-06-08T21:21:52.003Z,27.27
2019-06-08T21:24:21.806Z,26.00
2019-06-08T21:26:54.373Z,22.60
2019-06-08T21:29:26.651Z,16.00
2019-06-08T21:31:59.606Z,18.67
2019-06-08T21:34:28.078Z,17.03
2019-06-08T21:37:00.712Z,15.33
2019-06-08T21:39:30.307Z,16.60
2019-06-08T21:42:02.997Z,18.73
2019-06-08T21:44:32.213Z,20.40
2019-06-08T21:47:02.333Z,19.90
2019-06-08T21:49:35.453Z,21.93
2019-06-08T21:52:26.029Z,18.70
2019-06-08T21:54:58.894Z,20.93
2019-06-08T21:57:44.307Z,22.70
2019-06-08T22:00:38.150Z,19.93
2019-06-08T22:03:08.318Z,18.63
2019-06-08T22:05:38.503Z,16.77
2019-06-08T22:08:29.435Z,15.13
2019-06-08T22:11:00.715Z,16.27
2019-06-08T22:13:30.828Z,13.37
2019-06-08T22:16:01.978Z,14.63
2019-06-08T22:18:32.791Z,13.63
2019-06-08T22:21:03.635Z,14.07
2019-06-08T22:23:33.901Z,14.00
2019-06-08T22:26:04.072Z,12.83
2019-06-08T22:28:34.167Z,14.20
2019-06-08T22:31:04.381Z,12.27
2019-06-08T22:33:34.507Z,12.73
2019-06-08T22:36:04.638Z,16.13
2019-06-08T22:38:37.170Z,12.67
2019-06-08T22:41:08.092Z,12.33
2019-06-08T22:43:38.198Z,9.63
2019-06-08T22:46:22.861Z,12.17
2019-06-08T22:48:53.590Z,8.80
2019-06-08T22:51:44.923Z,10.00
2019-06-08T22:54:16.988Z,10.27
2019-06-08T22:57:09.794Z,10.37
2019-06-08T22:59:39.976Z,9.37
2019-06-08T23:02:33.476Z,8.10
2019-06-08T23:05:04.686Z,8.37
2019-06-08T23:07:59.843Z,8.37
2019-06-08T23:10:29.748Z,8.23
2019-06-08T23:13:28.397Z,8.23
2019-06-08T23:16:01.300Z,9.93
2019-06-08T23:18:44.069Z,8.07
2019-06-08T23:21:14.201Z,9.13
2019-06-08T23:23:44.701Z,9.40
2019-06-08T23:26:15.347Z,8.53
2019-06-08T23:28:47.164Z,7.17
2019-06-08T23:31:24.837Z,9.77
2019-06-08T23:33:49.032Z,8.50
2019-06-08T23:36:45.466Z,9.83
2019-06-08T23:38:50.805Z,8.70
2019-06-08T23:41:20.873Z,9.03
2019-06-08T23:43:50.989Z,7.30
2019-06-08T23:46:21.091Z,8.87
2019-06-08T23:48:51.176Z,8.93
2019-06-08T23:51:21.254Z,11.17
2019-06-08T23:53:51.494Z,10.70
2019-06-08T23:56:34.249Z,12.60
2019-06-08T23:59:05.169Z,12.77
